createdAt,value
2019-05-23T00:05:57.844Z,101461.19
2019-05-23T00:12:13.917Z,101462.50
2019-05-23T00:18:21.314Z,101461.59
2019-05-23T00:24:27.346Z,101463.30
2019-05-23T00:30:40.779Z,101463.70
2019-05-23T00:36:47.128Z,101461.47
2019-05-23T00:42:53.701Z,101467.63
2019-05-23T00:49:00.526Z,101469.35
2019-05-23T00:55:08.532Z,101467.13
2019-05-23T01:01:14.331Z,101457.00
2019-05-23T01:07:21.830Z,101455.64
2019-05-23T01:13:28.683Z,101449.91
2019-05-23T01:19:34.661Z,101451.65
2019-05-23T01:25:40.930Z,101450.69
2019-05-23T01:31:48.556Z,101449.26
2019-05-23T01:37:57.661Z,101446.55
2019-05-23T01:44:05.104Z,101443.83
2019-05-23T01:50:13.092Z,101431.01
2019-05-23T01:56:20.204Z,101429.16
2019-05-23T02:02:27.456Z,101427.85
2019-05-23T02:08:36.717Z,101429.56
2019-05-23T02:14:45.905Z,101437.90
2019-05-23T02:20:53.329Z,101430.30
2019-05-23T02:26:59.976Z,101423.61
2019-05-23T02:33:05.771Z,101416.94
2019-05-23T02:39:29.779Z,101417.38
2019-05-23T02:45:39.742Z,101408.16
2019-05-23T02:51:46.687Z,101409.42
2019-05-23T02:57:53.215Z,101403.23
2019-05-23T03:04:05.848Z,101404.97
2019-05-23T03:10:13.698Z,101402.27
2019-05-23T03:16:24.247Z,101397.84
2019-05-23T03:22:45.410Z,101394.73
2019-05-23T03:28:52.599Z,101395.99
2019-05-23T03:35:05.495Z,101398.16
2019-05-23T03:41:12.545Z,101390.70
2019-05-23T03:47:20.621Z,101382.80
2019-05-23T03:53:28.691Z,101391.54
2019-05-23T03:59:35.351Z,101393.31
2019-05-23T04:05:43.873Z,101394.16
2019-05-23T04:11:49.884Z,101395.06
2019-05-23T04:17:55.896Z,101396.02
2019-05-23T04:24:02.078Z,101391.61
2019-05-23T04:30:10.318Z,101402.17
2019-05-23T04:36:16.788Z,101395.19
2019-05-23T04:42:22.887Z,101396.95
2019-05-23T04:48:29.432Z,101386.06
2019-05-23T04:54:35.408Z,101385.31
2019-05-23T05:00:41.403Z,101383.59
2019-05-23T05:06:47.312Z,101382.30
2019-05-23T05:12:55.184Z,101388.91
2019-05-23T05:19:01.466Z,101386.83
2019-05-23T05:25:10.156Z,101390.00
2019-05-23T05:31:15.934Z,101394.48
2019-05-23T05:37:21.954Z,101392.80
2019-05-23T05:43:28.002Z,101395.52
2019-05-23T05:49:34.917Z,101399.17
2019-05-23T05:55:40.906Z,101406.34
2019-05-23T06:01:47.640Z,101405.12
2019-05-23T06:07:54.957Z,101403.00
2019-05-23T06:14:00.936Z,101403.52
2019-05-23T06:20:08.043Z,101393.86
2019-05-23T06:26:13.821Z,101400.41
2019-05-23T06:32:21.331Z,101404.33
2019-05-23T06:38:27.321Z,101417.48
2019-05-23T06:44:33.861Z,101407.65
2019-05-23T06:50:41.749Z,101400.02
2019-05-23T06:56:48.527Z,101399.88
2019-05-23T07:02:54.519Z,101401.48
2019-05-23T07:09:01.426Z,101398.61
2019-05-23T07:15:07.614Z,101401.09
2019-05-23T07:21:14.179Z,101406.62
2019-05-23T07:27:21.646Z,101401.55
2019-05-23T07:33:27.811Z,101400.45
2019-05-23T07:39:33.572Z,101397.54
2019-05-23T07:45:44.339Z,101392.87
2019-05-23T07:51:51.342Z,101397.94
2019-05-23T07:57:58.219Z,101391.84
2019-05-23T08:04:20.493Z,101388.85
2019-05-23T08:10:14.036Z,101383.23
2019-05-23T08:16:20.181Z,101390.03
2019-05-23T08:22:27.763Z,101381.83
2019-05-23T08:28:34.407Z,101381.06
2019-05-23T08:34:42.912Z,101385.55
2019-05-23T08:40:49.924Z,101383.32
2019-05-23T08:46:56.659Z,101372.30
2019-05-23T08:53:02.671Z,101371.42
2019-05-23T08:59:10.929Z,101365.74
2019-05-23T09:05:19.188Z,101363.18
2019-05-23T09:11:26.192Z,101359.58
2019-05-23T09:17:49.724Z,101360.99
2019-05-23T09:23:40.776Z,101351.41
2019-05-23T09:29:47.247Z,101349.09
2019-05-23T09:35:53.417Z,101348.72
2019-05-23T09:41:59.424Z,101349.28
2019-05-23T09:48:06.041Z,101340.78
2019-05-23T09:54:12.627Z,101332.56
2019-05-23T10:00:21.658Z,101331.39
2019-05-23T10:06:28.079Z,101320.23
2019-05-23T10:12:34.146Z,101321.82
2019-05-23T10:18:41.738Z,101323.03
2019-05-23T10:24:47.592Z,101319.58
2019-05-23T10:30:53.605Z,101307.98
2019-05-23T10:36:59.646Z,101309.89
2019-05-23T10:43:05.717Z,101298.95
2019-05-23T10:49:12.101Z,101290.03
2019-05-23T10:55:18.779Z,101287.27
2019-05-23T11:01:24.947Z,101272.55
2019-05-23T11:07:31.006Z,101272.13
2019-05-23T11:13:38.653Z,101266.16
2019-05-23T11:19:45.111Z,101258.84
2019-05-23T11:25:51.412Z,101248.80
2019-05-23T11:31:57.700Z,101249.53
2019-05-23T11:38:04.017Z,101249.20
2019-05-23T11:44:10.623Z,101244.45
2019-05-23T11:50:17.135Z,101249.70
2019-05-23T11:56:23.302Z,101234.58
2019-05-23T12:02:33.547Z,101221.80
2019-05-23T12:08:39.954Z,101218.48
2019-05-23T12:14:46.202Z,101216.59
2019-05-23T12:20:59.576Z,101209.63
2019-05-23T12:27:04.231Z,101215.30
2019-05-23T12:33:10.560Z,101215.82
2019-05-23T12:39:16.942Z,101205.16
2019-05-23T12:45:24.987Z,101201.02
2019-05-23T12:51:33.785Z,101187.67
2019-05-23T12:57:39.872Z,101181.63
2019-05-23T13:03:47.411Z,101188.84
2019-05-23T13:09:53.295Z,101180.02
2019-05-23T13:15:59.323Z,101165.08
2019-05-23T13:22:05.738Z,101159.28
2019-05-23T13:28:12.155Z,101157.94
2019-05-23T13:34:18.819Z,101151.64
2019-05-23T13:40:25.315Z,101159.47
2019-05-23T13:46:31.722Z,101145.84
2019-05-23T13:52:38.793Z,101143.09
2019-05-23T13:58:45.501Z,101146.53
2019-05-23T14:04:52.226Z,101137.83
2019-05-23T14:10:58.466Z,101125.67
2019-05-23T14:17:27.988Z,101126.42
2019-05-23T14:23:34.453Z,101127.75
2019-05-23T14:29:40.782Z,101111.97
2019-05-23T14:35:48.868Z,101117.08
2019-05-23T14:42:00.834Z,101112.14
2019-05-23T14:48:14.369Z,101110.52
2019-05-23T14:54:25.632Z,101099.85
2019-05-23T15:00:32.874Z,101105.11
2019-05-23T15:06:39.587Z,101098.02
2019-05-23T15:12:45.753Z,101098.95
2019-05-23T15:18:52.106Z,101092.97
2019-05-23T15:24:58.627Z,101094.80
2019-05-23T15:31:05.486Z,101084.98
2019-05-23T15:37:12.669Z,101079.56
2019-05-23T15:43:18.810Z,101080.53
2019-05-23T15:49:25.991Z,101078.09
2019-05-23T15:55:40.790Z,101078.78
2019-05-23T16:01:59.528Z,101070.91
2019-05-23T16:08:06.391Z,101063.22
2019-05-23T16:14:12.921Z,101066.63
2019-05-23T16:20:19.144Z,101070.00
2019-05-23T16:26:25.494Z,101067.83
2019-05-23T16:32:31.753Z,101061.38
2019-05-23T16:38:38.140Z,101050.98
2019-05-23T16:44:44.560Z,101054.51
2019-05-23T16:50:51.117Z,101054.26
2019-05-23T16:57:25.566Z,101059.80
2019-05-23T17:03:41.638Z,101058.09
2019-05-23T17:10:08.125Z,101052.05
2019-05-23T17:16:15.772Z,101049.34
2019-05-23T17:22:55.783Z,101046.25
2019-05-23T17:29:04.207Z,101044.31
2019-05-23T17:35:10.797Z,101043.15
2019-05-23T17:41:17.436Z,101041.86
2019-05-23T17:47:23.953Z,101036.11
2019-05-23T17:53:30.467Z,101036.95
2019-05-23T17:59:37.003Z,101038.98
2019-05-23T18:05:43.272Z,101043.73
2019-05-23T18:11:49.587Z,101049.69
2019-05-23T18:17:58.763Z,101043.75
2019-05-23T18:24:06.409Z,101045.15
2019-05-23T18:30:27.591Z,101047.66
2019-05-23T18:36:33.634Z,101045.83
2019-05-23T18:42:40.156Z,101050.61
2019-05-23T18:48:46.527Z,101049.84
2019-05-23T18:54:52.311Z,101052.10
2019-05-23T19:01:19.189Z,101054.86
2019-05-23T19:07:25.293Z,101055.36
2019-05-23T19:13:31.497Z,101064.30
2019-05-23T19:19:37.471Z,101070.91
2019-05-23T19:25:44.873Z,101075.03
2019-05-23T19:31:50.796Z,101078.05
2019-05-23T19:37:56.606Z,101083.58
2019-05-23T19:44:02.785Z,101090.61
2019-05-23T19:50:09.139Z,101099.86
2019-05-23T19:56:15.398Z,101101.05
2019-05-23T20:02:45.002Z,101103.88
2019-05-23T20:08:52.668Z,101110.38
2019-05-23T20:14:58.490Z,101115.53
2019-05-23T20:21:04.370Z,101118.29
2019-05-23T20:27:10.570Z,101111.44
2019-05-23T20:33:16.405Z,101119.95
2019-05-23T20:39:22.850Z,101114.70
2019-05-23T20:45:29.149Z,101115.42
2019-05-23T20:51:35.654Z,101121.48
2019-05-23T20:57:41.502Z,101121.00
2019-05-23T21:03:48.597Z,101120.84
2019-05-23T21:09:54.881Z,101120.73
2019-05-23T21:16:00.786Z,101117.87
2019-05-23T21:22:06.727Z,101121.45
2019-05-23T21:28:12.472Z,101120.64
2019-05-23T21:34:21.863Z,101117.20
2019-05-23T21:40:54.235Z,101109.35
2019-05-23T21:47:00.146Z,101115.20
2019-05-23T21:53:05.930Z,101104.59
2019-05-23T21:59:11.671Z,101111.69
2019-05-23T22:05:18.710Z,101110.66
2019-05-23T22:11:24.526Z,101111.87
2019-05-23T22:17:31.205Z,101102.82
2019-05-23T22:23:37.410Z,101105.27
2019-05-23T22:29:45.335Z,101101.05
2019-05-23T22:35:51.342Z,101100.72
2019-05-23T22:41:57.700Z,101100.35
2019-05-23T22:48:03.771Z,101091.74
2019-05-23T22:54:09.697Z,101091.86
2019-05-23T23:00:18.206Z,101088.48
2019-05-23T23:06:24.403Z,101090.87
2019-05-23T23:12:31.945Z,101077.69
2019-05-23T23:18:38.217Z,101074.92
2019-05-23T23:24:44.030Z,101071.67
2019-05-23T23:30:51.570Z,101072.67
2019-05-23T23:36:57.353Z,101075.95
2019-05-23T23:43:03.233Z,101069.92
2019-05-23T23:49:26.387Z,101066.11
2019-05-23T23:55:49.912Z,101063.98
